createdAt,value
2022-08-08T00:01:08.157Z,11.49
2022-08-08T00:03:47.584Z,11.56
2022-08-08T00:06:28.556Z,11.61
2022-08-08T00:09:07.758Z,11.67
2022-08-08T00:11:47.133Z,11.47
2022-08-08T00:14:56.866Z,11.39
2022-08-08T00:17:48.243Z,11.39
2022-08-08T00:20:22.491Z,11.09
2022-08-08T00:22:54.225Z,10.94
2022-08-08T00:25:24.580Z,11.05
2022-08-08T00:27:59.176Z,11.12
2022-08-08T00:30:32.333Z,11.22
2022-08-08T00:33:05.776Z,11.25
2022-08-08T00:35:37.467Z,11.03
2022-08-08T00:38:31.358Z,11.07
2022-08-08T00:41:54.762Z,10.91
2022-08-08T00:44:44.075Z,10.85
2022-08-08T00:48:05.261Z,10.93
2022-08-08T00:51:25.579Z,10.90
2022-08-08T00:54:51.119Z,10.87
2022-08-08T00:58:12.620Z,10.84
2022-08-08T01:00:50.562Z,10.91
2022-08-08T01:04:01.763Z,10.92
2022-08-08T01:06:41.015Z,10.76
2022-08-08T01:09:53.578Z,10.86
2022-08-08T01:12:41.976Z,10.49
2022-08-08T01:15:54.132Z,10.74
2022-08-08T01:18:53.321Z,10.36
2022-08-08T01:22:12.119Z,10.06
2022-08-08T01:24:58.082Z,10.37
2022-08-08T01:28:02.264Z,10.56
2022-08-08T01:31:06.108Z,10.80
2022-08-08T01:34:06.105Z,10.56
2022-08-08T01:37:13.663Z,10.47
2022-08-08T01:40:14.649Z,10.40
2022-08-08T01:42:48.626Z,10.25
2022-08-08T01:45:50.474Z,10.23
2022-08-08T01:48:35.338Z,10.36
2022-08-08T01:52:41.203Z,10.39
2022-08-08T01:55:26.590Z,10.47
2022-08-08T01:57:33.758Z,10.63
2022-08-08T02:00:19.206Z,10.63
2022-08-08T02:03:01.705Z,10.70
2022-08-08T02:05:56.786Z,10.65
2022-08-08T02:08:39.739Z,10.67
2022-08-08T02:11:23.762Z,10.31
2022-08-08T02:14:27.434Z,10.42
2022-08-08T02:17:00.149Z,10.38
2022-08-08T02:19:57.091Z,10.49
2022-08-08T02:22:45.806Z,10.55
2022-08-08T02:25:32.857Z,10.45
2022-08-08T02:28:17.523Z,10.34
2022-08-08T02:31:04.752Z,10.45
2022-08-08T02:34:08.067Z,10.03
2022-08-08T02:36:40.837Z,10.07
2022-08-08T02:39:40.823Z,10.10
2022-08-08T02:42:47.563Z,9.94
2022-08-08T02:46:20.888Z,10.08
2022-08-08T02:49:47.336Z,10.09
2022-08-08T02:52:34.633Z,9.97
2022-08-08T02:55:36.380Z,9.94
2022-08-08T02:58:36.918Z,10.05
2022-08-08T03:01:47.398Z,9.97
2022-08-08T03:05:10.521Z,10.09
2022-08-08T03:08:35.602Z,10.24
2022-08-08T03:11:59.794Z,10.39
2022-08-08T03:16:00.053Z,10.29
2022-08-08T03:17:43.357Z,10.13
2022-08-08T03:20:27.900Z,10.14
2022-08-08T03:23:00.544Z,10.24
2022-08-08T03:25:36.091Z,10.28
2022-08-08T03:28:07.755Z,10.35
2022-08-08T03:30:35.748Z,10.01
2022-08-08T03:33:55.468Z,9.89
2022-08-08T03:36:10.187Z,9.89
2022-08-08T03:38:55.055Z,10.13
2022-08-08T03:42:28.489Z,10.23
2022-08-08T03:44:25.609Z,10.08
2022-08-08T03:46:53.916Z,10.22
2022-08-08T03:49:57.546Z,10.18
2022-08-08T03:52:13.165Z,10.26
2022-08-08T03:55:02.186Z,10.38
2022-08-08T03:58:34.216Z,10.44
2022-08-08T04:00:21.046Z,10.68
2022-08-08T04:02:57.568Z,10.73
2022-08-08T04:05:28.760Z,10.82
2022-08-08T04:07:57.989Z,10.92
2022-08-08T04:10:32.084Z,11.05
2022-08-08T04:13:00.785Z,11.09
2022-08-08T04:15:38.369Z,11.18
2022-08-08T04:18:16.589Z,11.20
2022-08-08T04:20:45.198Z,11.31
2022-08-08T04:23:13.443Z,11.34
2022-08-08T04:25:44.576Z,11.40
2022-08-08T04:28:36.299Z,11.49
2022-08-08T04:31:06.586Z,11.49
2022-08-08T04:33:41.839Z,11.51
2022-08-08T04:36:10.087Z,11.53
2022-08-08T04:38:38.595Z,11.51
2022-08-08T04:41:17.829Z,11.59
2022-08-08T04:43:54.199Z,11.55
2022-08-08T04:46:25.376Z,11.82
2022-08-08T04:49:01.198Z,11.91
2022-08-08T04:51:55.052Z,11.94
2022-08-08T04:54:39.282Z,11.72
2022-08-08T04:57:07.106Z,11.83
2022-08-08T04:59:42.247Z,12.12
2022-08-08T05:02:13.655Z,12.17
2022-08-08T05:04:44.536Z,12.20
2022-08-08T05:07:14.871Z,12.26
2022-08-08T05:09:43.501Z,12.29
2022-08-08T05:12:20.386Z,12.45
2022-08-08T05:14:48.713Z,12.61
2022-08-08T05:17:20.466Z,12.81
2022-08-08T05:20:11.161Z,12.87
2022-08-08T05:22:40.185Z,13.10
2022-08-08T05:25:08.966Z,13.37
2022-08-08T05:27:41.651Z,13.42
2022-08-08T05:30:12.943Z,13.44
2022-08-08T05:32:42.341Z,13.58
2022-08-08T05:35:12.762Z,13.78
2022-08-08T05:37:52.688Z,13.90
2022-08-08T05:40:28.149Z,14.02
2022-08-08T05:43:39.893Z,14.11
2022-08-08T05:45:53.349Z,14.23
2022-08-08T05:48:28.381Z,14.26
2022-08-08T05:51:14.597Z,14.48
2022-08-08T05:54:24.714Z,14.47
2022-08-08T05:56:38.790Z,14.56
2022-08-08T06:00:00.866Z,14.54
2022-08-08T06:02:33.712Z,14.71
2022-08-08T06:05:06.697Z,14.86
2022-08-08T06:08:01.997Z,15.04
2022-08-08T06:10:33.556Z,15.02
2022-08-08T06:13:02.642Z,15.24
2022-08-08T06:15:51.257Z,15.22
2022-08-08T06:18:22.235Z,15.38
2022-08-08T06:20:56.359Z,15.73
2022-08-08T06:23:49.101Z,15.73
2022-08-08T06:26:38.267Z,15.94
2022-08-08T06:29:26.694Z,16.29
2022-08-08T06:32:11.534Z,16.50
2022-08-08T06:34:56.352Z,16.61
2022-08-08T06:37:40.581Z,16.96
2022-08-08T06:40:16.573Z,17.00
2022-08-08T06:42:53.369Z,17.23
2022-08-08T06:45:23.075Z,17.26
2022-08-08T06:48:00.702Z,17.45
2022-08-08T06:50:33.793Z,17.65
2022-08-08T06:53:14.094Z,17.70
2022-08-08T06:55:46.979Z,17.81
2022-08-08T06:58:22.764Z,18.01
2022-08-08T07:01:00.578Z,18.13
2022-08-08T07:04:39.040Z,18.17
2022-08-08T07:06:34.336Z,18.33
2022-08-08T07:09:20.796Z,18.42
2022-08-08T07:11:51.975Z,18.59
2022-08-08T07:14:22.868Z,18.68
2022-08-08T07:17:01.797Z,18.94
2022-08-08T07:19:40.194Z,19.14
2022-08-08T07:22:12.095Z,19.09
2022-08-08T07:24:53.055Z,19.28
2022-08-08T07:27:27.882Z,19.50
2022-08-08T07:30:25.326Z,19.63
2022-08-08T07:32:59.294Z,19.82
2022-08-08T07:35:31.212Z,19.99
2022-08-08T07:38:18.433Z,19.91
2022-08-08T07:40:54.248Z,19.84
2022-08-08T07:43:37.274Z,20.11
2022-08-08T07:46:23.079Z,20.29
2022-08-08T07:48:52.605Z,20.41
2022-08-08T07:51:23.482Z,20.67
2022-08-08T07:54:26.601Z,20.79
2022-08-08T07:57:09.175Z,20.96
2022-08-08T08:00:00.747Z,21.05
2022-08-08T08:02:38.943Z,21.20
2022-08-08T08:05:15.630Z,21.41
2022-08-08T08:07:53.310Z,21.47
2022-08-08T08:10:30.234Z,21.29
2022-08-08T08:13:25.657Z,21.47
2022-08-08T08:16:12.947Z,21.57
2022-08-08T08:18:51.842Z,21.61
2022-08-08T08:21:44.325Z,21.59
2022-08-08T08:24:18.459Z,21.60
2022-08-08T08:26:52.837Z,21.55
2022-08-08T08:29:24.133Z,21.59
2022-08-08T08:31:58.157Z,21.55
2022-08-08T08:34:32.314Z,21.49
2022-08-08T08:37:03.468Z,21.50
2022-08-08T08:39:59.659Z,21.51
2022-08-08T08:42:32.143Z,21.55
2022-08-08T08:45:21.385Z,21.54
2022-08-08T08:47:54.273Z,21.49
2022-08-08T08:50:33.608Z,21.55
2022-08-08T08:53:28.178Z,21.42
2022-08-08T08:56:02.100Z,21.55
2022-08-08T08:58:33.360Z,21.61
2022-08-08T09:01:10.473Z,21.75
2022-08-08T09:03:46.474Z,21.68
2022-08-08T09:06:28.562Z,21.66
2022-08-08T09:09:04.835Z,21.69
2022-08-08T09:11:47.824Z,21.70
2022-08-08T09:14:25.903Z,21.81
2022-08-08T09:16:55.442Z,21.90
2022-08-08T09:21:58.976Z,21.86
2022-08-08T09:22:27.059Z,21.81
2022-08-08T09:24:56.734Z,21.96
2022-08-08T09:27:56.893Z,22.00
2022-08-08T09:30:22.185Z,22.05
2022-08-08T09:33:12.525Z,22.08
2022-08-08T09:35:49.104Z,21.97
2022-08-08T09:38:32.964Z,21.80
2022-08-08T09:41:06.745Z,21.86
2022-08-08T09:44:05.155Z,21.99
2022-08-08T09:46:32.097Z,21.90
2022-08-08T09:49:18.054Z,22.17
2022-08-08T09:52:06.698Z,22.25
2022-08-08T09:54:38.451Z,22.46
2022-08-08T09:57:11.832Z,22.58
2022-08-08T10:00:02.336Z,22.96
2022-08-08T10:02:37.723Z,23.04
2022-08-08T10:05:14.933Z,23.25
2022-08-08T10:08:00.068Z,23.51
2022-08-08T10:10:31.670Z,23.59
2022-08-08T10:13:06.060Z,23.75
2022-08-08T10:16:00.519Z,23.68
2022-08-08T10:18:31.150Z,23.67
2022-08-08T10:21:23.030Z,23.71
2022-08-08T10:23:57.847Z,23.79
2022-08-08T10:26:59.430Z,23.80
2022-08-08T10:29:30.249Z,23.61
2022-08-08T10:32:39.208Z,23.46
2022-08-08T10:35:10.618Z,23.34
2022-08-08T10:37:40.295Z,23.03
2022-08-08T10:40:17.373Z,23.06
2022-08-08T10:42:50.259Z,23.09
2022-08-08T10:45:18.234Z,23.12
2022-08-08T10:47:55.676Z,23.05
2022-08-08T10:50:31.161Z,23.13
2022-08-08T10:53:02.934Z,23.44
2022-08-08T10:55:40.536Z,23.70
2022-08-08T10:58:11.968Z,23.67
2022-08-08T11:00:53.136Z,23.87
2022-08-08T11:04:00.774Z,23.67
2022-08-08T11:06:31.718Z,23.57
2022-08-08T11:09:03.676Z,23.74
2022-08-08T11:12:06.286Z,23.82
2022-08-08T11:14:39.818Z,23.86
2022-08-08T11:17:15.160Z,24.17
2022-08-08T11:19:46.591Z,24.23
2022-08-08T11:22:26.882Z,24.34
2022-08-08T11:24:56.117Z,24.43
2022-08-08T11:27:29.313Z,24.47
2022-08-08T11:30:24.697Z,24.48
2022-08-08T11:32:57.327Z,24.62
2022-08-08T11:35:38.468Z,24.69
2022-08-08T11:38:38.721Z,24.78
2022-08-08T11:40:59.181Z,24.84
2022-08-08T11:43:39.515Z,24.96
2022-08-08T11:46:17.645Z,24.79
2022-08-08T11:48:47.806Z,24.76
2022-08-08T11:51:30.518Z,24.43
2022-08-08T11:54:09.919Z,24.34
2022-08-08T11:56:56.397Z,24.49
2022-08-08T11:59:41.771Z,24.40
2022-08-08T12:02:32.157Z,24.66
2022-08-08T12:05:03.242Z,24.75
2022-08-08T12:07:35.561Z,24.66
2022-08-08T12:10:12.241Z,24.78
2022-08-08T12:12:46.081Z,24.59
2022-08-08T12:15:28.242Z,24.46
2022-08-08T12:17:56.219Z,24.53
2022-08-08T12:24:00.174Z,24.81
2022-08-08T12:26:37.835Z,25.00
2022-08-08T12:29:25.804Z,24.92
2022-08-08T12:32:13.279Z,25.09
2022-08-08T12:34:51.162Z,25.37
2022-08-08T12:37:22.917Z,25.31
2022-08-08T12:39:59.746Z,25.60
2022-08-08T12:42:33.765Z,25.63
2022-08-08T12:45:54.888Z,25.22
2022-08-08T12:48:10.002Z,25.28
2022-08-08T12:50:54.684Z,25.08
2022-08-08T12:53:37.841Z,25.13
2022-08-08T12:56:18.370Z,25.23
2022-08-08T12:58:49.345Z,25.15
2022-08-08T13:01:28.824Z,25.04
2022-08-08T13:04:19.110Z,25.18
2022-08-08T13:06:58.688Z,25.31
2022-08-08T13:09:33.581Z,25.39
2022-08-08T13:12:29.558Z,25.54
2022-08-08T13:14:58.964Z,25.79
2022-08-08T13:18:08.522Z,25.85
2022-08-08T13:20:20.083Z,26.11
2022-08-08T13:22:48.654Z,26.40
2022-08-08T13:25:17.737Z,26.52
2022-08-08T13:27:54.868Z,26.55
2022-08-08T13:30:26.663Z,26.86
2022-08-08T13:32:57.318Z,27.09
2022-08-08T13:35:29.567Z,27.27
2022-08-08T13:38:12.220Z,27.33
2022-08-08T13:40:44.885Z,27.38
2022-08-08T13:43:15.987Z,27.60
2022-08-08T13:45:47.541Z,27.54
2022-08-08T13:48:19.604Z,27.82
2022-08-08T13:50:57.745Z,27.52
2022-08-08T13:53:53.190Z,27.59
2022-08-08T13:56:32.198Z,27.33
2022-08-08T13:59:01.855Z,27.11
2022-08-08T14:01:42.316Z,26.87
2022-08-08T14:04:22.949Z,27.14
2022-08-08T14:06:51.352Z,27.24
2022-08-08T14:09:29.861Z,27.39
2022-08-08T14:11:59.421Z,27.44
2022-08-08T14:14:43.134Z,27.28
2022-08-08T14:17:22.741Z,26.95
2022-08-08T14:20:07.430Z,27.18
2022-08-08T14:22:43.148Z,27.19
2022-08-08T14:25:15.493Z,27.36
2022-08-08T14:27:59.721Z,27.25
2022-08-08T14:30:35.028Z,27.35
2022-08-08T14:33:03.089Z,27.49
2022-08-08T14:35:44.433Z,27.74
2022-08-08T14:38:34.704Z,27.88
2022-08-08T14:41:18.618Z,27.98
2022-08-08T14:44:11.132Z,27.72
2022-08-08T14:46:41.941Z,27.27
2022-08-08T14:49:20.384Z,27.28
2022-08-08T14:52:08.374Z,27.45
2022-08-08T14:54:47.719Z,27.49
2022-08-08T14:57:17.421Z,27.65
2022-08-08T14:59:56.028Z,27.50
2022-08-08T15:02:36.253Z,27.02
2022-08-08T15:05:33.954Z,26.97
2022-08-08T15:16:51.024Z,26.20
2022-08-08T15:19:23.823Z,26.64
2022-08-08T15:21:59.651Z,26.94
2022-08-08T15:24:32.527Z,27.17
2022-08-08T15:27:12.089Z,27.26
2022-08-08T15:29:51.371Z,27.29
2022-08-08T15:32:30.524Z,26.97
2022-08-08T15:35:01.474Z,27.38
2022-08-08T15:37:33.114Z,26.79
2022-08-08T15:40:01.800Z,26.77
2022-08-08T15:42:41.472Z,26.44
2022-08-08T15:45:13.028Z,26.01
2022-08-08T15:47:41.188Z,25.88
2022-08-08T15:50:52.723Z,25.63
2022-08-08T15:53:23.755Z,25.95
2022-08-08T15:55:54.112Z,25.76
2022-08-08T15:58:28.091Z,25.77
2022-08-08T16:01:00.085Z,25.67
2022-08-08T16:03:28.269Z,25.56
2022-08-08T16:06:02.076Z,25.63
2022-08-08T16:08:30.317Z,25.88
2022-08-08T16:13:02.012Z,25.87
2022-08-08T16:13:49.315Z,26.20
2022-08-08T16:16:22.194Z,26.00
2022-08-08T16:18:56.382Z,26.10
2022-08-08T16:21:31.556Z,26.46
2022-08-08T16:24:01.288Z,26.46
2022-08-08T16:26:33.817Z,26.48
2022-08-08T16:29:03.343Z,26.48
2022-08-08T16:31:37.305Z,26.37
2022-08-08T16:34:06.175Z,26.33
2022-08-08T16:36:36.117Z,26.62
2022-08-08T16:39:09.979Z,26.57
2022-08-08T16:41:51.275Z,26.67
2022-08-08T16:44:27.601Z,26.64
2022-08-08T16:47:16.716Z,26.52
2022-08-08T16:49:44.755Z,26.35
2022-08-08T16:55:19.331Z,26.14
2022-08-08T16:55:33.785Z,26.12
2022-08-08T16:58:13.930Z,25.89
2022-08-08T17:00:49.232Z,25.72
2022-08-08T17:03:24.898Z,25.54
2022-08-08T17:06:03.428Z,25.30
2022-08-08T17:08:32.869Z,25.11
2022-08-08T17:11:10.551Z,24.96
2022-08-08T17:13:41.148Z,24.76
2022-08-08T17:16:21.995Z,24.61
2022-08-08T17:18:52.875Z,24.42
2022-08-08T17:21:21.388Z,24.25
2022-08-08T17:23:57.944Z,24.26
2022-08-08T17:26:29.644Z,24.15
2022-08-08T17:28:58.598Z,24.03
2022-08-08T17:31:44.388Z,23.82
2022-08-08T17:34:35.731Z,23.67
2022-08-08T17:37:09.006Z,23.38
2022-08-08T17:40:04.452Z,23.45
2022-08-08T17:42:30.073Z,23.30
2022-08-08T17:44:58.584Z,23.15
2022-08-08T17:47:27.608Z,23.00
2022-08-08T17:50:07.633Z,22.90
2022-08-08T17:52:37.568Z,22.80
2022-08-08T17:56:04.169Z,22.73
2022-08-08T17:57:56.817Z,22.47
2022-08-08T18:00:30.253Z,22.38
2022-08-08T18:03:07.456Z,21.99
2022-08-08T18:05:44.113Z,21.51
2022-08-08T18:08:25.169Z,21.59
2022-08-08T18:11:15.079Z,21.51
2022-08-08T18:13:45.223Z,21.39
2022-08-08T18:16:20.489Z,21.33
2022-08-08T18:18:53.691Z,20.91
2022-08-08T18:21:35.143Z,20.97
2022-08-08T18:24:19.265Z,20.90
2022-08-08T18:26:53.765Z,20.44
2022-08-08T18:29:27.241Z,20.31
2022-08-08T18:32:00.569Z,20.17
2022-08-08T18:34:32.728Z,20.02
2022-08-08T18:37:04.933Z,19.90
2022-08-08T18:39:54.615Z,19.74
2022-08-08T18:42:24.042Z,19.62
2022-08-08T18:44:52.961Z,19.62
2022-08-08T18:47:24.996Z,19.65
2022-08-08T18:49:57.612Z,19.59
2022-08-08T18:52:29.699Z,19.63
2022-08-08T18:55:00.639Z,19.58
2022-08-08T18:57:47.877Z,19.60
2022-08-08T19:00:20.521Z,19.44
2022-08-08T19:02:55.687Z,19.25
2022-08-08T19:05:34.734Z,18.79
2022-08-08T19:08:25.690Z,18.65
2022-08-08T19:11:01.475Z,18.59
2022-08-08T19:13:56.966Z,18.51
2022-08-08T19:16:32.330Z,18.54
2022-08-08T19:19:12.365Z,18.55
2022-08-08T19:21:56.287Z,18.15
2022-08-08T19:31:18.339Z,18.12
2022-08-08T19:34:04.582Z,17.99
2022-08-08T19:36:42.659Z,17.70
2022-08-08T19:39:14.194Z,17.63
2022-08-08T19:41:43.609Z,17.67
2022-08-08T19:44:12.964Z,17.64
2022-08-08T19:46:57.222Z,17.50
2022-08-08T19:49:25.794Z,17.54
2022-08-08T19:51:54.140Z,17.57
2022-08-08T19:54:22.201Z,17.55
2022-08-08T19:56:50.263Z,17.70
2022-08-08T19:59:22.188Z,17.66
2022-08-08T20:02:03.459Z,17.40
2022-08-08T20:04:34.001Z,17.52
2022-08-08T20:07:05.423Z,17.58
2022-08-08T20:09:56.064Z,17.52
2022-08-08T20:12:32.123Z,17.45
2022-08-08T20:18:00.836Z,17.26
2022-08-08T20:20:33.019Z,17.23
2022-08-08T20:23:04.682Z,16.96
2022-08-08T20:25:42.212Z,16.85
2022-08-08T20:28:18.584Z,16.81
2022-08-08T20:30:56.005Z,16.83
2022-08-08T20:33:28.339Z,16.69
2022-08-08T20:36:17.820Z,16.41
2022-08-08T20:38:50.492Z,16.30
2022-08-08T20:41:19.252Z,16.32
2022-08-08T20:43:48.094Z,16.38
2022-08-08T20:46:17.527Z,16.41
2022-08-08T20:48:49.052Z,16.20
2022-08-08T20:51:20.807Z,16.14
2022-08-08T20:53:59.262Z,16.18
2022-08-08T20:56:35.803Z,15.80
2022-08-08T20:59:20.935Z,15.77
2022-08-08T21:02:06.747Z,15.82
2022-08-08T21:04:36.720Z,15.74
2022-08-08T21:07:08.325Z,15.71
2022-08-08T21:10:02.469Z,15.63
2022-08-08T21:12:32.282Z,15.60
2022-08-08T21:15:07.203Z,15.63
2022-08-08T21:17:37.652Z,15.45
2022-08-08T21:20:07.910Z,15.42
2022-08-08T21:22:39.563Z,15.51
2022-08-08T21:25:17.079Z,15.34
2022-08-08T21:28:09.222Z,15.38
2022-08-08T21:30:34.942Z,15.33
2022-08-08T21:33:07.918Z,15.47
2022-08-08T21:36:16.280Z,15.52
2022-08-08T21:38:33.901Z,15.22
2022-08-08T21:41:02.847Z,15.09
2022-08-08T21:43:34.119Z,14.89
2022-08-08T21:48:05.919Z,14.89
2022-08-08T21:48:53.233Z,14.39
2022-08-08T21:54:18.378Z,14.35
2022-08-08T21:54:32.398Z,14.32
2022-08-08T21:57:02.748Z,14.39
2022-08-08T22:00:02.894Z,14.47
2022-08-08T22:02:23.366Z,14.53
2022-08-08T22:04:53.503Z,14.53
2022-08-08T22:07:39.478Z,14.59
2022-08-08T22:10:18.697Z,14.63
2022-08-08T22:13:17.510Z,14.73
2022-08-08T22:15:59.565Z,14.61
2022-08-08T22:18:30.041Z,14.45
2022-08-08T22:21:10.846Z,14.51
2022-08-08T22:23:49.548Z,14.77
2022-08-08T22:26:29.928Z,14.64
2022-08-08T22:29:04.350Z,14.67
2022-08-08T22:32:02.385Z,14.71
2022-08-08T22:34:33.064Z,14.45
2022-08-08T22:37:27.654Z,14.41
2022-08-08T22:40:00.824Z,14.20
2022-08-08T22:42:31.736Z,14.06
2022-08-08T22:45:03.118Z,13.98
2022-08-08T22:47:37.630Z,13.78
2022-08-08T22:50:26.272Z,13.60
2022-08-08T22:54:19.534Z,13.46
2022-08-08T22:55:59.787Z,13.25
2022-08-08T22:58:32.967Z,13.13
2022-08-08T23:02:04.030Z,13.12
2022-08-08T23:04:32.003Z,13.29
2022-08-08T23:07:02.694Z,13.12
2022-08-08T23:09:39.291Z,13.12
2022-08-08T23:12:39.614Z,13.14
2022-08-08T23:16:41.665Z,13.30
2022-08-08T23:17:58.738Z,13.24
2022-08-08T23:20:27.774Z,13.23
2022-08-08T23:22:57.050Z,13.27
2022-08-08T23:25:25.295Z,13.02
2022-08-08T23:27:54.692Z,12.88
2022-08-08T23:30:24.417Z,12.74
2022-08-08T23:32:52.592Z,12.98
2022-08-08T23:35:20.386Z,13.01
2022-08-08T23:38:02.244Z,13.05
2022-08-08T23:40:32.036Z,13.05
2022-08-08T23:43:02.807Z,13.06
2022-08-08T23:49:02.526Z,13.07
2022-08-08T23:49:03.734Z,12.98
2022-08-08T23:51:12.765Z,12.97
2022-08-08T23:54:39.580Z,12.67
2022-08-08T23:56:46.973Z,12.69
2022-08-08T23:59:17.402Z,12.78
